createdAt,value
2023-03-29T00:01:35.965Z,6.10
2023-03-29T00:04:04.354Z,6.08
2023-03-29T00:06:31.289Z,6.08
2023-03-29T00:08:57.831Z,6.10
2023-03-29T00:11:26.004Z,6.10
2023-03-29T00:13:52.971Z,6.07
2023-03-29T00:16:19.569Z,6.06
2023-03-29T00:18:46.124Z,6.06
2023-03-29T00:21:12.965Z,6.08
2023-03-29T00:23:39.458Z,6.10
2023-03-29T00:26:08.078Z,6.11
2023-03-29T00:28:35.623Z,6.10
2023-03-29T00:31:10.723Z,6.08
2023-03-29T00:33:37.641Z,6.07
2023-03-29T00:36:05.301Z,6.08
2023-03-29T00:38:32.336Z,6.07
2023-03-29T00:41:02.700Z,6.05
2023-03-29T00:43:29.757Z,6.05
2023-03-29T00:45:56.387Z,6.05
2023-03-29T00:48:27.239Z,6.04
2023-03-29T00:51:03.872Z,6.05
2023-03-29T00:53:36.036Z,6.04
2023-03-29T00:56:24.676Z,6.05
2023-03-29T00:59:01.764Z,6.04
2023-03-29T01:01:35.738Z,6.04
2023-03-29T01:04:08.606Z,6.06
2023-03-29T01:06:43.389Z,6.07
2023-03-29T01:09:13.721Z,6.06
2023-03-29T01:11:47.195Z,6.07
2023-03-29T01:14:35.647Z,6.08
2023-03-29T01:17:02.297Z,6.10
2023-03-29T01:19:35.049Z,6.13
2023-03-29T01:22:22.552Z,6.15
2023-03-29T01:24:56.661Z,6.15
2023-03-29T01:27:45.374Z,6.15
2023-03-29T01:30:17.645Z,6.16
2023-03-29T01:32:52.528Z,6.18
2023-03-29T01:35:43.811Z,6.19
2023-03-29T01:38:20.671Z,6.20
2023-03-29T01:40:47.625Z,6.22
2023-03-29T01:43:36.330Z,6.25
2023-03-29T01:46:16.295Z,6.26
2023-03-29T01:48:56.969Z,6.28
2023-03-29T01:51:49.281Z,6.31
2023-03-29T01:54:22.836Z,6.35
2023-03-29T01:56:51.373Z,6.36
2023-03-29T01:59:22.979Z,6.37
2023-03-29T02:01:54.207Z,6.38
2023-03-29T02:04:29.479Z,6.41
2023-03-29T02:06:58.306Z,6.43
2023-03-29T02:09:25.429Z,6.43
2023-03-29T02:11:53.588Z,6.44
2023-03-29T02:14:20.157Z,6.45
2023-03-29T02:16:47.539Z,6.46
2023-03-29T02:19:15.379Z,6.44
2023-03-29T02:21:51.780Z,6.44
2023-03-29T02:24:22.040Z,6.47
2023-03-29T02:26:49.382Z,6.48
2023-03-29T02:29:16.558Z,6.49
2023-03-29T02:31:51.943Z,6.51
2023-03-29T02:34:26.658Z,6.51
2023-03-29T02:36:59.054Z,6.53
2023-03-29T02:39:29.182Z,6.50
2023-03-29T02:41:57.451Z,6.50
2023-03-29T02:44:29.926Z,6.52
2023-03-29T02:47:05.481Z,6.53
2023-03-29T02:49:32.666Z,6.54
2023-03-29T02:52:07.643Z,6.55
2023-03-29T02:54:37.879Z,6.54
2023-03-29T02:57:08.548Z,6.54
2023-03-29T02:59:35.386Z,6.54
2023-03-29T03:02:02.093Z,6.54
2023-03-29T03:04:29.542Z,6.56
2023-03-29T03:06:56.071Z,6.55
2023-03-29T03:09:22.653Z,6.56
2023-03-29T03:11:49.170Z,6.55
2023-03-29T03:14:16.783Z,6.57
2023-03-29T03:16:43.536Z,6.57
2023-03-29T03:19:10.491Z,6.57
2023-03-29T03:21:37.867Z,6.58
2023-03-29T03:24:05.642Z,6.58
2023-03-29T03:26:32.666Z,6.57
2023-03-29T03:29:00.916Z,6.56
2023-03-29T03:31:29.556Z,6.55
2023-03-29T03:33:56.670Z,6.55
2023-03-29T03:36:26.453Z,6.53
2023-03-29T03:38:53.401Z,6.54
2023-03-29T03:41:19.954Z,6.55
2023-03-29T03:43:49.171Z,6.58
2023-03-29T03:46:17.476Z,6.58
2023-03-29T03:48:45.305Z,6.58
2023-03-29T03:51:12.408Z,6.58
2023-03-29T03:53:39.796Z,6.58
2023-03-29T03:56:09.256Z,6.58
2023-03-29T03:58:37.671Z,6.59
2023-03-29T04:01:05.469Z,6.59
2023-03-29T04:03:32.453Z,6.57
2023-03-29T04:06:03.557Z,6.57
2023-03-29T04:08:30.343Z,6.57
2023-03-29T04:10:58.486Z,6.57
2023-03-29T04:13:26.522Z,6.57
2023-03-29T04:15:55.832Z,6.57
2023-03-29T04:18:24.047Z,6.59
2023-03-29T04:20:51.029Z,6.59
2023-03-29T04:23:17.818Z,6.59
2023-03-29T04:25:44.992Z,6.59
2023-03-29T04:28:12.947Z,6.59
2023-03-29T04:30:39.834Z,6.59
2023-03-29T04:33:06.623Z,6.60
2023-03-29T04:35:33.664Z,6.60
2023-03-29T04:38:00.454Z,6.61
2023-03-29T04:40:28.910Z,6.62
2023-03-29T04:42:55.482Z,6.61
2023-03-29T04:45:22.389Z,6.61
2023-03-29T04:47:49.545Z,6.63
2023-03-29T04:50:16.244Z,6.64
2023-03-29T04:52:42.962Z,6.62
2023-03-29T04:55:10.924Z,6.63
2023-03-29T04:57:37.522Z,6.63
2023-03-29T05:00:15.502Z,6.62
2023-03-29T05:02:44.272Z,6.63
2023-03-29T05:05:12.169Z,6.64
2023-03-29T05:07:39.424Z,6.64
2023-03-29T05:10:06.738Z,6.65
2023-03-29T05:12:33.265Z,6.66
2023-03-29T05:15:00.136Z,6.67
2023-03-29T05:17:27.571Z,6.66
2023-03-29T05:19:54.545Z,6.67
2023-03-29T05:22:21.809Z,6.67
2023-03-29T05:24:48.575Z,6.69
2023-03-29T05:27:17.270Z,6.67
2023-03-29T05:29:46.594Z,6.67
2023-03-29T05:32:13.864Z,6.70
2023-03-29T05:34:40.800Z,6.71
2023-03-29T05:37:07.550Z,6.71
2023-03-29T05:39:37.078Z,6.72
2023-03-29T05:42:04.878Z,6.72
2023-03-29T05:44:31.960Z,6.75
2023-03-29T05:46:58.613Z,6.74
2023-03-29T05:49:25.576Z,6.76
2023-03-29T05:51:52.438Z,6.76
2023-03-29T05:54:19.036Z,6.79
2023-03-29T05:56:45.950Z,6.80
2023-03-29T05:59:13.889Z,6.80
2023-03-29T06:01:41.758Z,6.81
2023-03-29T06:04:08.428Z,6.83
2023-03-29T06:06:36.421Z,6.85
2023-03-29T06:09:03.211Z,6.86
2023-03-29T06:11:29.891Z,6.87
2023-03-29T06:13:57.481Z,6.88
2023-03-29T06:16:24.274Z,6.90
2023-03-29T06:18:50.840Z,6.92
2023-03-29T06:21:22.581Z,6.93
2023-03-29T06:23:49.332Z,6.94
2023-03-29T06:26:16.457Z,6.99
2023-03-29T06:28:43.323Z,7.00
2023-03-29T06:31:10.115Z,7.02
2023-03-29T06:33:38.187Z,7.05
2023-03-29T06:36:05.061Z,7.10
2023-03-29T06:38:31.829Z,7.17
2023-03-29T06:41:05.647Z,7.27
2023-03-29T06:43:33.477Z,7.37
2023-03-29T06:46:00.593Z,7.48
2023-03-29T06:48:27.328Z,7.59
2023-03-29T06:51:02.345Z,7.73
2023-03-29T06:53:29.284Z,7.82
2023-03-29T06:55:56.687Z,7.92
2023-03-29T06:58:23.276Z,8.03
2023-03-29T07:00:50.194Z,8.10
2023-03-29T07:03:20.401Z,8.20
2023-03-29T07:05:47.903Z,8.29
2023-03-29T07:08:16.627Z,8.36
2023-03-29T07:10:47.560Z,8.44
2023-03-29T07:16:13.049Z,8.63
2023-03-29T07:18:44.229Z,8.71
2023-03-29T07:21:12.673Z,8.83
2023-03-29T07:23:40.033Z,8.91
2023-03-29T07:26:11.372Z,8.99
2023-03-29T07:28:39.854Z,9.07
2023-03-29T07:37:06.773Z,9.29
2023-03-29T07:39:33.880Z,9.33
2023-03-29T07:42:00.800Z,9.40
2023-03-29T07:44:29.983Z,9.43
2023-03-29T07:46:56.669Z,9.46
2023-03-29T07:49:29.525Z,9.51
2023-03-29T07:51:58.024Z,9.58
2023-03-29T07:54:24.952Z,9.66
2023-03-29T07:56:52.809Z,9.70
2023-03-29T07:59:19.707Z,9.78
2023-03-29T08:01:46.428Z,9.86
2023-03-29T08:04:34.059Z,9.90
2023-03-29T08:07:00.835Z,9.93
2023-03-29T08:09:27.784Z,10.01
2023-03-29T08:11:54.541Z,10.10
2023-03-29T08:14:22.044Z,10.11
2023-03-29T08:16:49.031Z,10.17
2023-03-29T08:19:17.153Z,10.24
2023-03-29T08:21:44.134Z,10.27
2023-03-29T08:24:11.647Z,10.34
2023-03-29T08:26:38.362Z,10.38
2023-03-29T08:29:05.088Z,10.46
2023-03-29T08:31:32.290Z,10.48
2023-03-29T08:33:58.898Z,10.55
2023-03-29T08:36:25.786Z,10.58
2023-03-29T08:38:52.418Z,10.62
2023-03-29T08:41:57.783Z,10.69
2023-03-29T08:44:42.966Z,10.72
2023-03-29T08:47:25.854Z,10.82
2023-03-29T08:49:56.416Z,10.87
2023-03-29T08:52:32.753Z,10.83
2023-03-29T08:55:02.377Z,10.90
2023-03-29T08:57:36.528Z,10.96
2023-03-29T09:00:08.845Z,11.05
2023-03-29T09:02:36.388Z,10.99
2023-03-29T09:05:25.941Z,11.08
2023-03-29T09:07:54.092Z,11.06
2023-03-29T09:10:30.495Z,11.11
2023-03-29T09:13:28.134Z,11.14
2023-03-29T09:19:31.853Z,11.24
2023-03-29T09:22:01.542Z,11.25
2023-03-29T09:24:44.191Z,11.31
2023-03-29T09:27:25.186Z,11.40
2023-03-29T09:30:07.281Z,11.32
2023-03-29T09:32:52.068Z,11.43
2023-03-29T09:38:24.843Z,11.50
2023-03-29T09:41:02.489Z,11.60
2023-03-29T09:43:34.210Z,11.67
2023-03-29T09:58:32.964Z,12.10
2023-03-29T10:01:01.805Z,12.09
2023-03-29T10:03:30.583Z,12.07
2023-03-29T10:06:00.507Z,12.12
2023-03-29T10:08:36.875Z,12.21
2023-03-29T10:11:14.266Z,12.18
2023-03-29T10:13:47.182Z,12.30
2023-03-29T10:16:26.044Z,12.23
2023-03-29T10:18:54.669Z,12.39
2023-03-29T10:21:22.292Z,12.40
2023-03-29T10:23:56.582Z,12.47
2023-03-29T10:26:26.408Z,12.52
2023-03-29T10:28:57.300Z,12.63
2023-03-29T10:31:25.610Z,12.75
2023-03-29T10:34:02.833Z,12.69
2023-03-29T10:36:30.617Z,12.85
2023-03-29T10:39:03.538Z,12.86
2023-03-29T10:41:35.860Z,12.91
2023-03-29T10:44:03.486Z,12.89
2023-03-29T10:46:31.466Z,13.00
2023-03-29T10:49:06.267Z,13.01
2023-03-29T10:51:34.508Z,13.15
2023-03-29T10:54:02.442Z,13.18
2023-03-29T10:56:57.003Z,13.12
2023-03-29T10:59:33.033Z,13.16
2023-03-29T11:02:17.716Z,13.11
2023-03-29T11:05:10.750Z,13.18
2023-03-29T11:07:48.428Z,13.19
2023-03-29T11:10:30.759Z,13.25
2023-03-29T11:13:14.072Z,13.21
2023-03-29T11:15:55.491Z,13.15
2023-03-29T11:18:52.412Z,13.28
2023-03-29T11:21:53.588Z,13.18
2023-03-29T11:24:50.503Z,13.05
2023-03-29T11:27:41.988Z,13.08
2023-03-29T11:30:25.421Z,13.14
2023-03-29T11:32:57.087Z,13.19
2023-03-29T11:35:48.966Z,13.15
2023-03-29T11:38:21.828Z,13.09
2023-03-29T11:40:51.561Z,13.16
2023-03-29T11:43:27.971Z,13.19
2023-03-29T11:46:02.643Z,13.18
2023-03-29T11:48:34.836Z,13.23
2023-03-29T11:51:16.886Z,13.29
2023-03-29T11:53:54.134Z,13.37
2023-03-29T11:56:29.361Z,13.40
2023-03-29T11:59:04.760Z,13.46
2023-03-29T12:01:37.727Z,13.49
2023-03-29T12:04:17.893Z,13.62
2023-03-29T12:06:54.177Z,13.65
2023-03-29T12:09:32.703Z,13.69
2023-03-29T12:12:12.300Z,13.73
2023-03-29T12:14:48.245Z,13.73
2023-03-29T12:17:19.749Z,13.65
2023-03-29T12:20:00.416Z,13.70
2023-03-29T12:22:27.189Z,13.65
2023-03-29T12:24:57.706Z,13.70
2023-03-29T12:27:32.611Z,13.69
2023-03-29T12:30:16.407Z,13.71
2023-03-29T12:32:56.491Z,13.66
2023-03-29T12:35:49.664Z,13.59
2023-03-29T12:38:24.061Z,13.59
2023-03-29T12:40:57.241Z,13.53
2023-03-29T12:43:28.487Z,13.50
2023-03-29T12:46:01.999Z,13.49
2023-03-29T12:48:30.435Z,13.42
2023-03-29T12:51:39.896Z,13.40
2023-03-29T12:54:21.228Z,13.38
2023-03-29T12:56:58.368Z,13.33
2023-03-29T12:59:37.524Z,13.30
2023-03-29T13:02:34.845Z,13.27
2023-03-29T13:05:03.919Z,13.34
2023-03-29T13:07:44.684Z,13.32
2023-03-29T13:10:35.060Z,13.33
2023-03-29T13:13:12.723Z,13.35
2023-03-29T13:18:47.805Z,13.46
2023-03-29T13:21:29.075Z,13.52
2023-03-29T13:24:20.075Z,13.57
2023-03-29T13:27:05.225Z,13.62
2023-03-29T13:29:48.110Z,13.67
2023-03-29T13:32:47.383Z,13.75
2023-03-29T13:35:23.098Z,13.81
2023-03-29T13:38:04.235Z,13.87
2023-03-29T13:40:31.677Z,13.91
2023-03-29T13:43:10.926Z,13.99
2023-03-29T13:45:39.005Z,13.97
2023-03-29T13:48:30.981Z,14.00
2023-03-29T13:51:08.415Z,14.04
2023-03-29T13:53:41.368Z,14.11
2023-03-29T13:56:15.493Z,14.13
2023-03-29T13:58:51.356Z,14.14
2023-03-29T14:01:31.702Z,14.20
2023-03-29T14:04:09.091Z,14.21
2023-03-29T14:06:40.174Z,14.31
2023-03-29T14:09:08.983Z,14.28
2023-03-29T14:11:36.724Z,14.27
2023-03-29T14:14:14.304Z,14.34
2023-03-29T14:16:42.350Z,14.43
2023-03-29T14:19:32.527Z,14.45
2023-03-29T14:22:07.092Z,14.51
2023-03-29T14:24:52.453Z,14.54
2023-03-29T14:27:24.236Z,14.52
2023-03-29T14:29:51.692Z,14.61
2023-03-29T14:32:27.607Z,14.65
2023-03-29T14:34:54.696Z,14.68
2023-03-29T14:37:27.537Z,14.71
2023-03-29T14:39:55.139Z,14.75
2023-03-29T14:42:56.738Z,14.74
2023-03-29T14:45:24.325Z,14.84
2023-03-29T14:47:52.440Z,14.94
2023-03-29T14:50:24.706Z,14.92
2023-03-29T14:52:52.516Z,15.01
2023-03-29T14:55:26.266Z,15.02
2023-03-29T14:57:56.559Z,15.10
2023-03-29T15:00:28.205Z,15.11
2023-03-29T15:03:00.974Z,15.14
2023-03-29T15:05:37.897Z,15.17
2023-03-29T15:08:07.875Z,15.21
2023-03-29T15:13:33.750Z,15.29
2023-03-29T15:16:07.568Z,15.35
2023-03-29T15:21:22.914Z,15.40
2023-03-29T15:23:59.547Z,15.43
2023-03-29T15:29:24.325Z,15.43
2023-03-29T15:32:02.898Z,15.48
2023-03-29T15:34:32.209Z,15.50
2023-03-29T15:36:59.459Z,15.46
2023-03-29T15:39:29.385Z,15.54
2023-03-29T15:41:58.362Z,15.42
2023-03-29T15:44:32.859Z,15.45
2023-03-29T15:47:00.471Z,15.44
2023-03-29T15:49:27.521Z,15.44
2023-03-29T15:51:54.743Z,15.43
2023-03-29T15:54:22.428Z,15.40
2023-03-29T15:56:55.399Z,15.38
2023-03-29T15:59:22.771Z,15.41
2023-03-29T16:01:49.590Z,15.35
2023-03-29T16:04:18.581Z,15.35
2023-03-29T16:06:48.562Z,15.29
2023-03-29T16:09:17.178Z,15.34
2023-03-29T16:11:45.763Z,15.40
2023-03-29T16:14:23.055Z,15.40
2023-03-29T16:16:51.043Z,15.32
2023-03-29T16:19:18.990Z,15.32
2023-03-29T16:21:45.766Z,15.36
2023-03-29T16:24:15.582Z,15.38
2023-03-29T16:26:42.753Z,15.38
2023-03-29T16:29:09.770Z,15.35
2023-03-29T16:31:36.671Z,15.37
2023-03-29T16:34:04.554Z,15.35
2023-03-29T16:36:33.123Z,15.36
2023-03-29T16:39:00.484Z,15.38
2023-03-29T16:41:27.728Z,15.34
2023-03-29T16:43:54.362Z,15.34
2023-03-29T16:46:21.275Z,15.34
2023-03-29T16:48:49.029Z,15.32
2023-03-29T16:51:15.657Z,15.33
2023-03-29T16:53:43.073Z,15.32
2023-03-29T16:56:10.831Z,15.35
2023-03-29T16:58:43.882Z,15.27
2023-03-29T17:01:16.726Z,15.24
2023-03-29T17:03:44.070Z,15.22
2023-03-29T17:06:11.706Z,15.20
2023-03-29T17:08:39.380Z,15.21
2023-03-29T17:11:07.107Z,15.18
2023-03-29T17:13:33.904Z,15.15
2023-03-29T17:16:01.353Z,15.12
2023-03-29T17:18:28.438Z,15.13
2023-03-29T17:20:58.784Z,15.13
2023-03-29T17:23:25.863Z,15.13
2023-03-29T17:25:54.851Z,15.13
2023-03-29T17:28:22.352Z,15.13
2023-03-29T17:30:49.087Z,15.13
2023-03-29T17:33:16.019Z,15.12
2023-03-29T17:35:44.678Z,15.10
2023-03-29T17:38:12.204Z,15.12
2023-03-29T17:43:34.081Z,15.06
2023-03-29T17:46:01.311Z,15.07
2023-03-29T17:48:28.430Z,15.06
2023-03-29T17:51:27.748Z,15.06
2023-03-29T17:53:54.843Z,15.05
2023-03-29T17:56:21.755Z,15.05
2023-03-29T17:58:50.804Z,15.01
2023-03-29T18:01:21.293Z,15.00
2023-03-29T18:03:48.712Z,14.99
2023-03-29T18:06:25.130Z,14.97
2023-03-29T18:08:53.230Z,14.93
2023-03-29T18:11:25.651Z,14.90
2023-03-29T18:13:53.200Z,14.86
2023-03-29T18:19:16.006Z,14.83
2023-03-29T18:21:42.644Z,14.82
2023-03-29T18:24:09.361Z,14.78
2023-03-29T18:26:35.952Z,14.77
2023-03-29T18:29:02.510Z,14.76
2023-03-29T18:31:29.304Z,14.72
2023-03-29T18:33:55.959Z,14.70
2023-03-29T18:36:23.949Z,14.68
2023-03-29T18:38:53.588Z,14.64
2023-03-29T18:41:20.588Z,14.61
2023-03-29T18:43:47.777Z,14.59
2023-03-29T18:46:15.920Z,14.60
2023-03-29T18:48:42.715Z,14.56
2023-03-29T18:51:11.206Z,14.55
2023-03-29T18:53:40.714Z,14.53
2023-03-29T18:56:08.149Z,14.52
2023-03-29T18:58:35.334Z,14.51
2023-03-29T19:01:04.217Z,14.49
2023-03-29T19:03:34.889Z,14.48
2023-03-29T19:06:02.578Z,14.47
2023-03-29T19:08:29.667Z,14.45
2023-03-29T19:11:06.173Z,14.45
2023-03-29T19:13:33.684Z,14.42
2023-03-29T19:16:00.521Z,14.41
2023-03-29T19:18:27.903Z,14.40
2023-03-29T19:20:55.118Z,14.38
2023-03-29T19:23:27.740Z,14.38
2023-03-29T19:26:00.497Z,14.40
2023-03-29T19:28:29.096Z,14.36
2023-03-29T19:30:58.185Z,14.33
2023-03-29T19:33:24.990Z,14.31
2023-03-29T19:35:52.101Z,14.28
2023-03-29T19:38:19.861Z,14.25
2023-03-29T19:40:49.277Z,14.23
2023-03-29T19:43:20.638Z,14.23
2023-03-29T19:48:43.521Z,14.21
2023-03-29T19:51:13.489Z,14.22
2023-03-29T19:53:41.811Z,14.19
2023-03-29T19:56:11.163Z,14.18
2023-03-29T19:58:37.784Z,14.18
2023-03-29T20:01:04.707Z,14.17
2023-03-29T20:03:34.341Z,14.15
2023-03-29T20:06:02.649Z,14.11
2023-03-29T20:08:29.522Z,14.06
2023-03-29T20:11:02.079Z,14.00
2023-03-29T20:13:38.304Z,13.91
2023-03-29T20:16:09.654Z,13.83
2023-03-29T20:18:39.611Z,13.75
2023-03-29T20:21:07.230Z,13.68
2023-03-29T20:23:34.473Z,13.59
2023-03-29T20:26:01.404Z,13.50
2023-03-29T20:28:28.546Z,13.43
2023-03-29T20:30:55.394Z,13.35
2023-03-29T20:33:22.377Z,13.29
2023-03-29T20:35:49.344Z,13.23
2023-03-29T20:38:16.159Z,13.16
2023-03-29T20:43:41.365Z,13.06
2023-03-29T20:46:14.800Z,13.01
2023-03-29T20:48:46.010Z,12.96
2023-03-29T20:54:10.017Z,12.88
2023-03-29T20:56:39.971Z,12.86
2023-03-29T20:59:10.609Z,12.84
2023-03-29T21:01:40.633Z,12.83
2023-03-29T21:04:08.536Z,12.82
2023-03-29T21:06:36.232Z,12.80
2023-03-29T21:09:05.055Z,12.78
2023-03-29T21:11:32.215Z,12.78
2023-03-29T21:13:59.163Z,12.76
2023-03-29T21:16:25.758Z,12.73
2023-03-29T21:18:53.358Z,12.71
2023-03-29T21:21:20.191Z,12.72
2023-03-29T21:23:46.824Z,12.70
2023-03-29T21:26:14.053Z,12.67
2023-03-29T21:28:42.387Z,12.65
2023-03-29T21:31:12.494Z,12.62
2023-03-29T21:33:39.055Z,12.62
2023-03-29T21:36:06.103Z,12.57
2023-03-29T21:38:32.758Z,12.57
2023-03-29T21:41:00.354Z,12.53
2023-03-29T21:43:26.984Z,12.51
2023-03-29T21:45:53.539Z,12.48
2023-03-29T21:48:20.360Z,12.45
2023-03-29T21:50:52.744Z,12.43
2023-03-29T21:53:19.482Z,12.42
2023-03-29T21:55:49.220Z,12.38
2023-03-29T21:58:16.194Z,12.38
2023-03-29T22:00:42.785Z,12.33
2023-03-29T22:03:09.713Z,12.31
2023-03-29T22:05:36.873Z,12.30
2023-03-29T22:13:52.955Z,12.25
2023-03-29T22:16:19.603Z,12.21
2023-03-29T22:18:49.469Z,12.21
2023-03-29T22:24:18.956Z,12.19
2023-03-29T22:26:45.911Z,12.17
2023-03-29T22:29:12.651Z,12.17
2023-03-29T22:31:39.680Z,12.15
2023-03-29T22:34:06.699Z,12.13
2023-03-29T22:36:33.796Z,12.11
2023-03-29T22:39:00.508Z,12.10
2023-03-29T22:44:22.234Z,12.09
2023-03-29T22:46:48.821Z,12.08
2023-03-29T22:49:15.340Z,12.06
2023-03-29T22:51:42.027Z,12.05
2023-03-29T22:54:08.601Z,12.04
2023-03-29T22:56:35.335Z,12.03
2023-03-29T22:59:01.801Z,12.04
2023-03-29T23:01:28.476Z,12.05
2023-03-29T23:03:55.043Z,12.05
2023-03-29T23:06:21.677Z,12.06
2023-03-29T23:08:48.239Z,12.05
2023-03-29T23:11:14.912Z,12.05
2023-03-29T23:13:41.593Z,12.04
2023-03-29T23:16:08.321Z,12.06
2023-03-29T23:18:37.548Z,12.07
2023-03-29T23:21:06.091Z,12.08
2023-03-29T23:23:33.597Z,12.10
2023-03-29T23:26:00.682Z,12.13
2023-03-29T23:28:30.386Z,12.14
2023-03-29T23:31:04.627Z,12.15
2023-03-29T23:33:35.284Z,12.17
2023-03-29T23:36:10.763Z,12.20
2023-03-29T23:38:38.887Z,12.20
2023-03-29T23:41:08.530Z,12.21
2023-03-29T23:43:40.484Z,12.23
2023-03-29T23:46:11.398Z,12.25
2023-03-29T23:48:38.683Z,12.25
2023-03-29T23:51:08.044Z,12.27
2023-03-29T23:53:34.844Z,12.28
2023-03-29T23:56:03.505Z,12.28
2023-03-29T23:58:35.449Z,12.31
